sensor_id;sensor_type;location;lat;lon;timestamp;P1;durP1;ratioP1;P2;durP2;ratioP2
9934;SDS011;5006;41.828;23.478;2022-07-29T00:00:06;6.55;;;5.95;;
9934;SDS011;5006;41.828;23.478;2022-07-29T00:01:13;6.53;;;5.93;;
9934;SDS011;5006;41.828;23.478;2022-07-29T00:02:20;6.10;;;5.60;;
9934;SDS011;5006;41.828;23.478;2022-07-29T00:03:25;6.50;;;5.80;;
9934;SDS011;5006;41.828;23.478;2022-07-29T00:04:31;6.43;;;5.80;;
9934;SDS011;5006;41.828;23.478;2022-07-29T00:05:39;6.47;;;5.80;;
9934;SDS011;5006;41.828;23.478;2022-07-29T00:06:44;6.40;;;5.63;;
9934;SDS011;5006;41.828;23.478;2022-07-29T00:07:50;7.15;;;6.43;;
9934;SDS011;5006;41.828;23.478;2022-07-29T00:08:55;6.82;;;6.20;;
9934;SDS011;5006;41.828;23.478;2022-07-29T00:10:02;8.10;;;7.30;;
9934;SDS011;5006;41.828;23.478;2022-07-29T00:11:09;9.20;;;7.25;;
9934;SDS011;5006;41.828;23.478;2022-07-29T00:12:13;8.05;;;7.25;;
9934;SDS011;5006;41.828;23.478;2022-07-29T00:13:19;7.60;;;6.78;;
9934;SDS011;5006;41.828;23.478;2022-07-29T00:14:25;7.10;;;5.60;;
9934;SDS011;5006;41.828;23.478;2022-07-29T00:15:31;7.20;;;6.38;;
9934;SDS011;5006;41.828;23.478;2022-07-29T00:16:35;6.40;;;5.80;;
9934;SDS011;5006;41.828;23.478;2022-07-29T00:17:42;6.00;;;5.40;;
9934;SDS011;5006;41.828;23.478;2022-07-29T00:18:46;6.97;;;5.85;;
9934;SDS011;5006;41.828;23.478;2022-07-29T00:19:52;7.00;;;5.50;;
9934;SDS011;5006;41.828;23.478;2022-07-29T00:20:57;5.60;;;5.10;;
9934;SDS011;5006;41.828;23.478;2022-07-29T00:22:03;7.00;;;5.90;;
9934;SDS011;5006;41.828;23.478;2022-07-29T00:23:07;5.30;;;4.90;;
9934;SDS011;5006;41.828;23.478;2022-07-29T00:24:13;5.88;;;5.38;;
9934;SDS011;5006;41.828;23.478;2022-07-29T00:25:19;6.53;;;5.82;;
9934;SDS011;5006;41.828;23.478;2022-07-29T00:26:24;6.63;;;5.80;;
9934;SDS011;5006;41.828;23.478;2022-07-29T00:27:31;6.28;;;5.63;;
9934;SDS011;5006;41.828;23.478;2022-07-29T00:28:37;9.48;;;5.88;;
9934;SDS011;5006;41.828;23.478;2022-07-29T00:29:42;6.05;;;5.30;;
9934;SDS011;5006;41.828;23.478;2022-07-29T00:30:48;6.65;;;5.47;;
9934;SDS011;5006;41.828;23.478;2022-07-29T00:31:52;6.80;;;5.75;;
9934;SDS011;5006;41.828;23.478;2022-07-29T00:32:58;8.43;;;7.43;;
9934;SDS011;5006;41.828;23.478;2022-07-29T00:34:04;8.57;;;7.78;;
9934;SDS011;5006;41.828;23.478;2022-07-29T00:35:09;8.18;;;6.32;;
9934;SDS011;5006;41.828;23.478;2022-07-29T00:36:33;6.95;;;6.25;;
9934;SDS011;5006;41.828;23.478;2022-07-29T00:37:38;6.68;;;5.80;;
9934;SDS011;5006;41.828;23.478;2022-07-29T00:38:43;6.03;;;5.35;;
9934;SDS011;5006;41.828;23.478;2022-07-29T00:39:49;6.57;;;5.82;;
9934;SDS011;5006;41.828;23.478;2022-07-29T00:40:56;7.10;;;6.15;;
9934;SDS011;5006;41.828;23.478;2022-07-29T00:42:02;6.82;;;5.60;;
9934;SDS011;5006;41.828;23.478;2022-07-29T00:43:07;6.80;;;6.07;;
9934;SDS011;5006;41.828;23.478;2022-07-29T00:44:13;6.93;;;6.32;;
9934;SDS011;5006;41.828;23.478;2022-07-29T00:45:18;7.00;;;6.30;;
9934;SDS011;5006;41.828;23.478;2022-07-29T00:46:25;6.40;;;5.78;;
9934;SDS011;5006;41.828;23.478;2022-07-29T00:47:31;8.60;;;6.68;;
9934;SDS011;5006;41.828;23.478;2022-07-29T00:48:36;9.85;;;8.52;;
9934;SDS011;5006;41.828;23.478;2022-07-29T00:49:42;8.55;;;7.65;;
9934;SDS011;5006;41.828;23.478;2022-07-29T00:51:05;8.45;;;6.28;;
9934;SDS011;5006;41.828;23.478;2022-07-29T00:52:13;7.97;;;6.47;;
9934;SDS011;5006;41.828;23.478;2022-07-29T00:53:18;6.53;;;6.00;;
9934;SDS011;5006;41.828;23.478;2022-07-29T00:54:26;6.28;;;5.68;;
9934;SDS011;5006;41.828;23.478;2022-07-29T00:55:31;6.82;;;6.13;;
9934;SDS011;5006;41.828;23.478;2022-07-29T00:56:38;6.80;;;6.20;;
9934;SDS011;5006;41.828;23.478;2022-07-29T00:57:43;9.77;;;6.20;;
9934;SDS011;5006;41.828;23.478;2022-07-29T00:58:49;7.93;;;7.15;;
9934;SDS011;5006;41.828;23.478;2022-07-29T00:59:55;12.90;;;11.55;;
9934;SDS011;5006;41.828;23.478;2022-07-29T01:01:01;9.38;;;8.40;;
9934;SDS011;5006;41.828;23.478;2022-07-29T01:02:07;8.82;;;7.85;;
9934;SDS011;5006;41.828;23.478;2022-07-29T01:03:12;8.63;;;6.80;;
9934;SDS011;5006;41.828;23.478;2022-07-29T01:04:18;7.35;;;6.65;;
9934;SDS011;5006;41.828;23.478;2022-07-29T01:05:23;8.32;;;7.53;;
9934;SDS011;5006;41.828;23.478;2022-07-29T01:06:31;7.47;;;6.78;;
9934;SDS011;5006;41.828;23.478;2022-07-29T01:07:37;7.47;;;6.78;;
9934;SDS011;5006;41.828;23.478;2022-07-29T01:08:44;9.05;;;7.03;;
9934;SDS011;5006;41.828;23.478;2022-07-29T01:09:51;7.18;;;6.47;;
9934;SDS011;5006;41.828;23.478;2022-07-29T01:10:58;6.57;;;6.00;;
9934;SDS011;5006;41.828;23.478;2022-07-29T01:12:07;7.28;;;6.45;;
9934;SDS011;5006;41.828;23.478;2022-07-29T01:13:12;6.95;;;6.30;;
9934;SDS011;5006;41.828;23.478;2022-07-29T01:14:20;8.40;;;7.10;;
9934;SDS011;5006;41.828;23.478;2022-07-29T01:15:25;6.60;;;6.00;;
9934;SDS011;5006;41.828;23.478;2022-07-29T01:16:32;6.88;;;6.22;;
9934;SDS011;5006;41.828;23.478;2022-07-29T01:17:43;6.63;;;6.03;;
9934;SDS011;5006;41.828;23.478;2022-07-29T01:18:51;6.63;;;6.07;;
9934;SDS011;5006;41.828;23.478;2022-07-29T01:20:06;6.10;;;5.50;;
9934;SDS011;5006;41.828;23.478;2022-07-29T01:21:23;7.10;;;5.88;;
9934;SDS011;5006;41.828;23.478;2022-07-29T01:22:44;8.40;;;5.50;;
9934;SDS011;5006;41.828;23.478;2022-07-29T01:24:07;6.35;;;5.75;;
9934;SDS011;5006;41.828;23.478;2022-07-29T01:25:30;7.20;;;5.43;;
9934;SDS011;5006;41.828;23.478;2022-07-29T01:26:56;7.78;;;5.68;;
9934;SDS011;5006;41.828;23.478;2022-07-29T01:28:16;6.95;;;5.57;;
9934;SDS011;5006;41.828;23.478;2022-07-29T01:29:30;7.18;;;6.47;;
9934;SDS011;5006;41.828;23.478;2022-07-29T01:30:39;8.68;;;5.82;;
9934;SDS011;5006;41.828;23.478;2022-07-29T01:31:50;6.55;;;5.90;;
9934;SDS011;5006;41.828;23.478;2022-07-29T01:33:01;5.93;;;5.43;;
9934;SDS011;5006;41.828;23.478;2022-07-29T01:34:11;6.10;;;5.50;;
9934;SDS011;5006;41.828;23.478;2022-07-29T01:35:23;7.60;;;5.63;;
9934;SDS011;5006;41.828;23.478;2022-07-29T01:36:32;5.95;;;5.40;;
9934;SDS011;5006;41.828;23.478;2022-07-29T01:37:43;7.38;;;6.18;;
9934;SDS011;5006;41.828;23.478;2022-07-29T01:38:52;7.45;;;6.35;;
9934;SDS011;5006;41.828;23.478;2022-07-29T01:40:08;6.35;;;5.85;;
9934;SDS011;5006;41.828;23.478;2022-07-29T01:41:23;6.10;;;5.53;;
9934;SDS011;5006;41.828;23.478;2022-07-29T01:42:32;7.35;;;5.82;;
9934;SDS011;5006;41.828;23.478;2022-07-29T01:43:44;6.70;;;6.10;;
9934;SDS011;5006;41.828;23.478;2022-07-29T01:44:57;7.07;;;5.95;;
9934;SDS011;5006;41.828;23.478;2022-07-29T01:46:09;7.10;;;6.40;;
9934;SDS011;5006;41.828;23.478;2022-07-29T01:47:19;6.20;;;5.70;;
9934;SDS011;5006;41.828;23.478;2022-07-29T01:48:31;7.57;;;6.40;;
9934;SDS011;5006;41.828;23.478;2022-07-29T01:49:43;7.03;;;6.30;;
9934;SDS011;5006;41.828;23.478;2022-07-29T01:50:56;6.85;;;6.25;;
9934;SDS011;5006;41.828;23.478;2022-07-29T01:52:07;6.07;;;5.57;;
9934;SDS011;5006;41.828;23.478;2022-07-29T01:53:21;6.35;;;5.78;;
9934;SDS011;5006;41.828;23.478;2022-07-29T01:54:35;6.97;;;6.40;;
9934;SDS011;5006;41.828;23.478;2022-07-29T01:55:46;7.68;;;6.72;;
9934;SDS011;5006;41.828;23.478;2022-07-29T01:56:55;6.85;;;6.20;;
9934;SDS011;5006;41.828;23.478;2022-07-29T01:58:02;7.30;;;6.60;;
9934;SDS011;5006;41.828;23.478;2022-07-29T01:59:10;7.40;;;6.70;;
9934;SDS011;5006;41.828;23.478;2022-07-29T02:00:17;6.97;;;6.38;;
9934;SDS011;5006;41.828;23.478;2022-07-29T02:01:23;8.55;;;6.88;;
9934;SDS011;5006;41.828;23.478;2022-07-29T02:02:30;7.18;;;6.30;;
9934;SDS011;5006;41.828;23.478;2022-07-29T02:03:37;6.82;;;6.30;;
9934;SDS011;5006;41.828;23.478;2022-07-29T02:04:45;8.32;;;6.55;;
9934;SDS011;5006;41.828;23.478;2022-07-29T02:05:53;7.45;;;6.50;;
9934;SDS011;5006;41.828;23.478;2022-07-29T02:07:01;8.00;;;7.07;;
9934;SDS011;5006;41.828;23.478;2022-07-29T02:08:09;7.63;;;6.93;;
9934;SDS011;5006;41.828;23.478;2022-07-29T02:09:16;7.90;;;7.13;;
9934;SDS011;5006;41.828;23.478;2022-07-29T02:10:25;9.65;;;7.22;;
9934;SDS011;5006;41.828;23.478;2022-07-29T02:11:34;7.38;;;6.68;;
9934;SDS011;5006;41.828;23.478;2022-07-29T02:12:42;7.00;;;6.40;;
9934;SDS011;5006;41.828;23.478;2022-07-29T02:13:50;8.00;;;7.10;;
9934;SDS011;5006;41.828;23.478;2022-07-29T02:14:59;7.47;;;6.80;;
9934;SDS011;5006;41.828;23.478;2022-07-29T02:16:07;6.65;;;6.15;;
9934;SDS011;5006;41.828;23.478;2022-07-29T02:17:13;7.40;;;6.70;;
9934;SDS011;5006;41.828;23.478;2022-07-29T02:18:26;7.25;;;6.65;;
9934;SDS011;5006;41.828;23.478;2022-07-29T02:19:32;6.90;;;6.20;;
9934;SDS011;5006;41.828;23.478;2022-07-29T02:20:39;7.60;;;6.72;;
9934;SDS011;5006;41.828;23.478;2022-07-29T02:21:46;7.22;;;6.53;;
9934;SDS011;5006;41.828;23.478;2022-07-29T02:22:53;7.25;;;6.00;;
9934;SDS011;5006;41.828;23.478;2022-07-29T02:23:59;7.10;;;6.45;;
9934;SDS011;5006;41.828;23.478;2022-07-29T02:25:07;7.55;;;6.85;;
9934;SDS011;5006;41.828;23.478;2022-07-29T02:26:13;6.78;;;6.18;;
9934;SDS011;5006;41.828;23.478;2022-07-29T02:27:22;7.07;;;6.40;;
9934;SDS011;5006;41.828;23.478;2022-07-29T02:28:30;6.70;;;6.10;;
9934;SDS011;5006;41.828;23.478;2022-07-29T02:29:37;7.05;;;6.35;;
9934;SDS011;5006;41.828;23.478;2022-07-29T02:30:44;7.65;;;6.15;;
9934;SDS011;5006;41.828;23.478;2022-07-29T02:31:52;7.13;;;6.43;;
9934;SDS011;5006;41.828;23.478;2022-07-29T02:32:59;7.00;;;6.30;;
9934;SDS011;5006;41.828;23.478;2022-07-29T02:34:06;7.15;;;6.53;;
9934;SDS011;5006;41.828;23.478;2022-07-29T02:35:14;6.65;;;6.05;;
9934;SDS011;5006;41.828;23.478;2022-07-29T02:36:22;6.57;;;5.97;;
9934;SDS011;5006;41.828;23.478;2022-07-29T02:37:29;6.97;;;6.38;;
9934;SDS011;5006;41.828;23.478;2022-07-29T02:38:36;6.38;;;5.78;;
9934;SDS011;5006;41.828;23.478;2022-07-29T02:39:54;7.40;;;6.70;;
9934;SDS011;5006;41.828;23.478;2022-07-29T02:41:03;7.10;;;6.50;;
9934;SDS011;5006;41.828;23.478;2022-07-29T02:42:13;6.80;;;6.30;;
9934;SDS011;5006;41.828;23.478;2022-07-29T02:43:21;8.30;;;6.30;;
9934;SDS011;5006;41.828;23.478;2022-07-29T02:44:28;7.93;;;7.00;;
9934;SDS011;5006;41.828;23.478;2022-07-29T02:45:37;7.35;;;6.72;;
9934;SDS011;5006;41.828;23.478;2022-07-29T02:46:43;8.07;;;7.38;;
9934;SDS011;5006;41.828;23.478;2022-07-29T02:47:54;10.45;;;9.02;;
9934;SDS011;5006;41.828;23.478;2022-07-29T02:49:05;10.20;;;8.90;;
9934;SDS011;5006;41.828;23.478;2022-07-29T02:50:15;9.23;;;8.23;;
9934;SDS011;5006;41.828;23.478;2022-07-29T02:51:27;10.18;;;9.00;;
9934;SDS011;5006;41.828;23.478;2022-07-29T02:52:37;9.82;;;8.73;;
9934;SDS011;5006;41.828;23.478;2022-07-29T02:53:47;8.68;;;7.55;;
9934;SDS011;5006;41.828;23.478;2022-07-29T02:54:56;8.15;;;6.20;;
9934;SDS011;5006;41.828;23.478;2022-07-29T02:56:06;7.72;;;7.03;;
9934;SDS011;5006;41.828;23.478;2022-07-29T02:57:16;7.47;;;6.78;;
9934;SDS011;5006;41.828;23.478;2022-07-29T02:58:27;7.15;;;6.55;;
9934;SDS011;5006;41.828;23.478;2022-07-29T02:59:35;7.97;;;6.75;;
9934;SDS011;5006;41.828;23.478;2022-07-29T03:00:43;7.88;;;7.07;;
9934;SDS011;5006;41.828;23.478;2022-07-29T03:01:51;7.18;;;6.22;;
9934;SDS011;5006;41.828;23.478;2022-07-29T03:03:01;6.97;;;6.38;;
9934;SDS011;5006;41.828;23.478;2022-07-29T03:04:09;6.78;;;6.25;;
9934;SDS011;5006;41.828;23.478;2022-07-29T03:05:17;7.93;;;7.13;;
9934;SDS011;5006;41.828;23.478;2022-07-29T03:06:25;7.18;;;6.22;;
9934;SDS011;5006;41.828;23.478;2022-07-29T03:07:33;10.27;;;7.18;;
9934;SDS011;5006;41.828;23.478;2022-07-29T03:08:40;8.93;;;6.90;;
9934;SDS011;5006;41.828;23.478;2022-07-29T03:09:45;8.77;;;7.03;;
9934;SDS011;5006;41.828;23.478;2022-07-29T03:10:51;6.75;;;6.15;;
9934;SDS011;5006;41.828;23.478;2022-07-29T03:11:57;7.43;;;6.57;;
9934;SDS011;5006;41.828;23.478;2022-07-29T03:13:04;7.22;;;6.63;;
9934;SDS011;5006;41.828;23.478;2022-07-29T03:14:10;7.13;;;6.47;;
9934;SDS011;5006;41.828;23.478;2022-07-29T03:15:17;7.43;;;6.82;;
9934;SDS011;5006;41.828;23.478;2022-07-29T03:16:23;7.13;;;6.43;;
9934;SDS011;5006;41.828;23.478;2022-07-29T03:17:30;8.88;;;7.90;;
9934;SDS011;5006;41.828;23.478;2022-07-29T03:18:37;8.20;;;7.40;;
9934;SDS011;5006;41.828;23.478;2022-07-29T03:19:43;8.70;;;7.68;;
9934;SDS011;5006;41.828;23.478;2022-07-29T03:20:49;7.30;;;6.60;;
9934;SDS011;5006;41.828;23.478;2022-07-29T03:21:55;9.88;;;7.07;;
9934;SDS011;5006;41.828;23.478;2022-07-29T03:23:01;7.70;;;7.00;;
9934;SDS011;5006;41.828;23.478;2022-07-29T03:24:06;10.88;;;6.80;;
9934;SDS011;5006;41.828;23.478;2022-07-29T03:25:13;9.48;;;6.75;;
9934;SDS011;5006;41.828;23.478;2022-07-29T03:26:19;7.40;;;6.70;;
9934;SDS011;5006;41.828;23.478;2022-07-29T03:27:24;7.70;;;7.00;;
9934;SDS011;5006;41.828;23.478;2022-07-29T03:28:30;8.52;;;7.15;;
9934;SDS011;5006;41.828;23.478;2022-07-29T03:29:35;7.80;;;7.07;;
9934;SDS011;5006;41.828;23.478;2022-07-29T03:30:41;9.10;;;7.32;;
9934;SDS011;5006;41.828;23.478;2022-07-29T03:31:45;10.10;;;7.13;;
9934;SDS011;5006;41.828;23.478;2022-07-29T03:32:52;7.20;;;6.60;;
9934;SDS011;5006;41.828;23.478;2022-07-29T03:33:58;7.30;;;6.70;;
9934;SDS011;5006;41.828;23.478;2022-07-29T03:35:04;8.57;;;6.93;;
9934;SDS011;5006;41.828;23.478;2022-07-29T03:36:10;7.70;;;6.93;;
9934;SDS011;5006;41.828;23.478;2022-07-29T03:37:16;7.82;;;7.13;;
9934;SDS011;5006;41.828;23.478;2022-07-29T03:38:21;7.80;;;7.10;;
9934;SDS011;5006;41.828;23.478;2022-07-29T03:39:31;7.93;;;7.22;;
9934;SDS011;5006;41.828;23.478;2022-07-29T03:40:43;8.25;;;7.35;;
9934;SDS011;5006;41.828;23.478;2022-07-29T03:41:54;7.68;;;6.97;;
9934;SDS011;5006;41.828;23.478;2022-07-29T03:43:02;8.02;;;7.25;;
9934;SDS011;5006;41.828;23.478;2022-07-29T03:44:10;8.07;;;7.38;;
9934;SDS011;5006;41.828;23.478;2022-07-29T03:45:17;11.90;;;6.68;;
9934;SDS011;5006;41.828;23.478;2022-07-29T03:46:24;8.07;;;7.22;;
9934;SDS011;5006;41.828;23.478;2022-07-29T03:47:33;8.23;;;7.47;;
9934;SDS011;5006;41.828;23.478;2022-07-29T03:48:42;8.55;;;7.53;;
9934;SDS011;5006;41.828;23.478;2022-07-29T03:49:54;8.57;;;7.78;;
9934;SDS011;5006;41.828;23.478;2022-07-29T03:51:10;7.95;;;7.25;;
9934;SDS011;5006;41.828;23.478;2022-07-29T03:52:15;8.70;;;7.90;;
9934;SDS011;5006;41.828;23.478;2022-07-29T03:53:21;9.13;;;7.95;;
9934;SDS011;5006;41.828;23.478;2022-07-29T03:54:26;8.23;;;7.43;;
9934;SDS011;5006;41.828;23.478;2022-07-29T03:55:33;8.40;;;7.60;;
9934;SDS011;5006;41.828;23.478;2022-07-29T03:56:45;8.93;;;7.78;;
9934;SDS011;5006;41.828;23.478;2022-07-29T03:57:54;8.20;;;7.47;;
9934;SDS011;5006;41.828;23.478;2022-07-29T03:59:01;10.77;;;7.90;;
9934;SDS011;5006;41.828;23.478;2022-07-29T04:00:08;8.57;;;7.78;;
9934;SDS011;5006;41.828;23.478;2022-07-29T04:01:15;9.82;;;7.72;;
9934;SDS011;5006;41.828;23.478;2022-07-29T04:02:21;8.10;;;7.25;;
9934;SDS011;5006;41.828;23.478;2022-07-29T04:03:28;8.57;;;7.75;;
9934;SDS011;5006;41.828;23.478;2022-07-29T04:04:35;8.75;;;7.95;;
9934;SDS011;5006;41.828;23.478;2022-07-29T04:05:41;8.00;;;7.22;;
9934;SDS011;5006;41.828;23.478;2022-07-29T04:06:47;8.20;;;7.40;;
9934;SDS011;5006;41.828;23.478;2022-07-29T04:07:52;8.65;;;7.90;;
9934;SDS011;5006;41.828;23.478;2022-07-29T04:08:58;8.40;;;7.57;;
9934;SDS011;5006;41.828;23.478;2022-07-29T04:10:03;8.23;;;7.43;;
9934;SDS011;5006;41.828;23.478;2022-07-29T04:11:09;8.43;;;7.40;;
9934;SDS011;5006;41.828;23.478;2022-07-29T04:12:14;8.38;;;7.68;;
9934;SDS011;5006;41.828;23.478;2022-07-29T04:13:20;8.15;;;7.35;;
9934;SDS011;5006;41.828;23.478;2022-07-29T04:14:25;8.52;;;7.72;;
9934;SDS011;5006;41.828;23.478;2022-07-29T04:15:31;8.10;;;7.40;;
9934;SDS011;5006;41.828;23.478;2022-07-29T04:16:36;8.25;;;7.45;;
9934;SDS011;5006;41.828;23.478;2022-07-29T04:17:42;9.00;;;7.57;;
9934;SDS011;5006;41.828;23.478;2022-07-29T04:18:46;12.43;;;7.80;;
9934;SDS011;5006;41.828;23.478;2022-07-29T04:19:52;8.32;;;7.13;;
9934;SDS011;5006;41.828;23.478;2022-07-29T04:20:59;7.57;;;6.95;;
9934;SDS011;5006;41.828;23.478;2022-07-29T04:22:05;8.25;;;7.55;;
9934;SDS011;5006;41.828;23.478;2022-07-29T04:23:10;8.00;;;7.30;;
9934;SDS011;5006;41.828;23.478;2022-07-29T04:24:15;8.50;;;7.70;;
9934;SDS011;5006;41.828;23.478;2022-07-29T04:25:21;8.40;;;7.50;;
9934;SDS011;5006;41.828;23.478;2022-07-29T04:26:26;9.02;;;7.90;;
9934;SDS011;5006;41.828;23.478;2022-07-29T04:27:31;8.50;;;7.55;;
9934;SDS011;5006;41.828;23.478;2022-07-29T04:28:36;7.85;;;7.13;;
9934;SDS011;5006;41.828;23.478;2022-07-29T04:29:43;7.75;;;7.00;;
9934;SDS011;5006;41.828;23.478;2022-07-29T04:30:48;9.75;;;7.30;;
9934;SDS011;5006;41.828;23.478;2022-07-29T04:31:54;8.32;;;7.53;;
9934;SDS011;5006;41.828;23.478;2022-07-29T04:32:59;8.48;;;7.68;;
9934;SDS011;5006;41.828;23.478;2022-07-29T04:34:05;8.50;;;7.80;;
9934;SDS011;5006;41.828;23.478;2022-07-29T04:35:10;9.25;;;7.35;;
9934;SDS011;5006;41.828;23.478;2022-07-29T04:36:17;10.57;;;9.68;;
9934;SDS011;5006;41.828;23.478;2022-07-29T04:37:24;15.45;;;13.85;;
9934;SDS011;5006;41.828;23.478;2022-07-29T04:38:29;15.73;;;13.45;;
9934;SDS011;5006;41.828;23.478;2022-07-29T04:39:35;13.77;;;12.43;;
9934;SDS011;5006;41.828;23.478;2022-07-29T04:40:41;17.10;;;12.57;;
9934;SDS011;5006;41.828;23.478;2022-07-29T04:41:45;13.43;;;11.55;;
9934;SDS011;5006;41.828;23.478;2022-07-29T04:42:51;13.18;;;11.77;;
9934;SDS011;5006;41.828;23.478;2022-07-29T04:43:56;13.38;;;12.05;;
9934;SDS011;5006;41.828;23.478;2022-07-29T04:45:05;13.98;;;12.13;;
9934;SDS011;5006;41.828;23.478;2022-07-29T04:46:10;12.23;;;10.75;;
9934;SDS011;5006;41.828;23.478;2022-07-29T04:47:16;15.25;;;12.18;;
9934;SDS011;5006;41.828;23.478;2022-07-29T04:48:22;14.32;;;12.38;;
9934;SDS011;5006;41.828;23.478;2022-07-29T04:49:28;13.45;;;12.05;;
9934;SDS011;5006;41.828;23.478;2022-07-29T04:50:33;13.15;;;11.80;;
9934;SDS011;5006;41.828;23.478;2022-07-29T04:51:40;14.98;;;12.02;;
9934;SDS011;5006;41.828;23.478;2022-07-29T04:52:44;13.32;;;11.93;;
9934;SDS011;5006;41.828;23.478;2022-07-29T04:53:50;15.80;;;11.20;;
9934;SDS011;5006;41.828;23.478;2022-07-29T04:54:55;13.07;;;11.73;;
9934;SDS011;5006;41.828;23.478;2022-07-29T04:56:00;12.88;;;11.23;;
9934;SDS011;5006;41.828;23.478;2022-07-29T04:57:07;14.00;;;12.60;;
9934;SDS011;5006;41.828;23.478;2022-07-29T04:58:13;14.63;;;11.30;;
9934;SDS011;5006;41.828;23.478;2022-07-29T04:59:18;12.98;;;11.48;;
9934;SDS011;5006;41.828;23.478;2022-07-29T05:00:23;16.13;;;13.98;;
9934;SDS011;5006;41.828;23.478;2022-07-29T05:01:28;15.95;;;13.93;;
9934;SDS011;5006;41.828;23.478;2022-07-29T05:02:34;18.38;;;14.48;;
9934;SDS011;5006;41.828;23.478;2022-07-29T05:03:39;16.35;;;14.23;;
9934;SDS011;5006;41.828;23.478;2022-07-29T05:04:45;16.45;;;14.65;;
9934;SDS011;5006;41.828;23.478;2022-07-29T05:05:50;16.95;;;14.00;;
9934;SDS011;5006;41.828;23.478;2022-07-29T05:06:57;15.52;;;13.93;;
9934;SDS011;5006;41.828;23.478;2022-07-29T05:08:02;15.82;;;14.15;;
9934;SDS011;5006;41.828;23.478;2022-07-29T05:09:08;18.70;;;14.75;;
9934;SDS011;5006;41.828;23.478;2022-07-29T05:10:13;15.50;;;13.90;;
9934;SDS011;5006;41.828;23.478;2022-07-29T05:11:19;15.52;;;13.90;;
9934;SDS011;5006;41.828;23.478;2022-07-29T05:12:24;17.98;;;13.80;;
9934;SDS011;5006;41.828;23.478;2022-07-29T05:13:30;14.27;;;12.97;;
9934;SDS011;5006;41.828;23.478;2022-07-29T05:14:35;14.95;;;13.35;;
9934;SDS011;5006;41.828;23.478;2022-07-29T05:15:41;14.40;;;12.80;;
9934;SDS011;5006;41.828;23.478;2022-07-29T05:16:46;14.57;;;13.00;;
9934;SDS011;5006;41.828;23.478;2022-07-29T05:17:53;13.80;;;12.27;;
9934;SDS011;5006;41.828;23.478;2022-07-29T05:18:58;13.63;;;12.23;;
9934;SDS011;5006;41.828;23.478;2022-07-29T05:20:03;15.93;;;12.77;;
9934;SDS011;5006;41.828;23.478;2022-07-29T05:21:10;13.50;;;11.93;;
9934;SDS011;5006;41.828;23.478;2022-07-29T05:22:17;13.07;;;11.67;;
9934;SDS011;5006;41.828;23.478;2022-07-29T05:23:22;15.53;;;13.03;;
9934;SDS011;5006;41.828;23.478;2022-07-29T05:24:27;14.20;;;12.60;;
9934;SDS011;5006;41.828;23.478;2022-07-29T05:25:33;15.83;;;13.50;;
9934;SDS011;5006;41.828;23.478;2022-07-29T05:26:39;15.40;;;12.27;;
9934;SDS011;5006;41.828;23.478;2022-07-29T05:27:44;13.83;;;11.43;;
9934;SDS011;5006;41.828;23.478;2022-07-29T05:28:49;13.07;;;11.77;;
9934;SDS011;5006;41.828;23.478;2022-07-29T05:29:54;12.23;;;11.03;;
9934;SDS011;5006;41.828;23.478;2022-07-29T05:31:00;13.33;;;11.63;;
9934;SDS011;5006;41.828;23.478;2022-07-29T05:32:05;14.63;;;11.57;;
9934;SDS011;5006;41.828;23.478;2022-07-29T05:33:11;15.10;;;12.03;;
9934;SDS011;5006;41.828;23.478;2022-07-29T05:34:16;14.73;;;12.63;;
9934;SDS011;5006;41.828;23.478;2022-07-29T05:35:22;12.97;;;11.67;;
9934;SDS011;5006;41.828;23.478;2022-07-29T05:36:27;12.77;;;11.57;;
9934;SDS011;5006;41.828;23.478;2022-07-29T05:37:34;15.10;;;11.43;;
9934;SDS011;5006;41.828;23.478;2022-07-29T05:38:39;13.63;;;12.20;;
9934;SDS011;5006;41.828;23.478;2022-07-29T05:39:45;15.97;;;12.70;;
9934;SDS011;5006;41.828;23.478;2022-07-29T05:40:50;16.47;;;12.97;;
9934;SDS011;5006;41.828;23.478;2022-07-29T05:41:56;17.97;;;13.57;;
9934;SDS011;5006;41.828;23.478;2022-07-29T05:43:01;16.63;;;14.40;;
9934;SDS011;5006;41.828;23.478;2022-07-29T05:44:07;19.20;;;14.37;;
9934;SDS011;5006;41.828;23.478;2022-07-29T05:45:13;18.90;;;14.17;;
9934;SDS011;5006;41.828;23.478;2022-07-29T05:46:18;17.53;;;13.93;;
9934;SDS011;5006;41.828;23.478;2022-07-29T05:47:24;16.00;;;13.20;;
9934;SDS011;5006;41.828;23.478;2022-07-29T05:48:29;13.73;;;12.43;;
9934;SDS011;5006;41.828;23.478;2022-07-29T05:49:34;13.90;;;12.20;;
9934;SDS011;5006;41.828;23.478;2022-07-29T05:50:39;14.67;;;12.23;;
9934;SDS011;5006;41.828;23.478;2022-07-29T05:51:45;14.73;;;12.47;;
9934;SDS011;5006;41.828;23.478;2022-07-29T05:52:52;14.07;;;12.40;;
9934;SDS011;5006;41.828;23.478;2022-07-29T05:53:57;14.80;;;12.70;;
9934;SDS011;5006;41.828;23.478;2022-07-29T05:55:03;13.40;;;12.00;;
9934;SDS011;5006;41.828;23.478;2022-07-29T05:56:09;13.53;;;12.13;;
9934;SDS011;5006;41.828;23.478;2022-07-29T05:57:15;16.60;;;13.30;;
9934;SDS011;5006;41.828;23.478;2022-07-29T05:58:20;14.90;;;12.73;;
9934;SDS011;5006;41.828;23.478;2022-07-29T05:59:26;14.50;;;11.67;;
9934;SDS011;5006;41.828;23.478;2022-07-29T06:00:32;13.33;;;11.20;;
9934;SDS011;5006;41.828;23.478;2022-07-29T06:01:38;13.97;;;11.77;;
9934;SDS011;5006;41.828;23.478;2022-07-29T06:02:43;12.27;;;11.07;;
9934;SDS011;5006;41.828;23.478;2022-07-29T06:03:49;15.00;;;11.80;;
9934;SDS011;5006;41.828;23.478;2022-07-29T06:04:54;18.70;;;12.13;;
9934;SDS011;5006;41.828;23.478;2022-07-29T06:06:00;14.30;;;12.00;;
9934;SDS011;5006;41.828;23.478;2022-07-29T06:07:05;14.00;;;12.40;;
9934;SDS011;5006;41.828;23.478;2022-07-29T06:08:12;13.30;;;11.90;;
9934;SDS011;5006;41.828;23.478;2022-07-29T06:09:17;13.77;;;12.47;;
9934;SDS011;5006;41.828;23.478;2022-07-29T06:10:23;13.07;;;11.87;;
9934;SDS011;5006;41.828;23.478;2022-07-29T06:11:29;16.50;;;12.57;;
9934;SDS011;5006;41.828;23.478;2022-07-29T06:12:35;13.30;;;12.00;;
9934;SDS011;5006;41.828;23.478;2022-07-29T06:13:39;14.37;;;12.87;;
9934;SDS011;5006;41.828;23.478;2022-07-29T06:14:45;13.90;;;12.50;;
9934;SDS011;5006;41.828;23.478;2022-07-29T06:15:50;14.30;;;13.00;;
9934;SDS011;5006;41.828;23.478;2022-07-29T06:16:55;14.40;;;12.90;;
9934;SDS011;5006;41.828;23.478;2022-07-29T06:18:02;17.10;;;15.30;;
9934;SDS011;5006;41.828;23.478;2022-07-29T06:19:07;16.33;;;14.83;;
9934;SDS011;5006;41.828;23.478;2022-07-29T06:20:13;15.37;;;13.87;;
9934;SDS011;5006;41.828;23.478;2022-07-29T06:21:17;15.27;;;13.77;;
9934;SDS011;5006;41.828;23.478;2022-07-29T06:22:23;16.00;;;14.13;;
9934;SDS011;5006;41.828;23.478;2022-07-29T06:23:29;16.53;;;13.10;;
9934;SDS011;5006;41.828;23.478;2022-07-29T06:24:36;15.90;;;14.47;;
9934;SDS011;5006;41.828;23.478;2022-07-29T06:25:45;15.17;;;13.67;;
9934;SDS011;5006;41.828;23.478;2022-07-29T06:26:50;14.63;;;13.20;;
9934;SDS011;5006;41.828;23.478;2022-07-29T06:27:56;14.80;;;12.90;;
9934;SDS011;5006;41.828;23.478;2022-07-29T06:29:01;14.73;;;13.23;;
9934;SDS011;5006;41.828;23.478;2022-07-29T06:30:08;14.00;;;12.70;;
9934;SDS011;5006;41.828;23.478;2022-07-29T06:31:14;14.07;;;12.67;;
9934;SDS011;5006;41.828;23.478;2022-07-29T06:32:20;15.73;;;13.67;;
9934;SDS011;5006;41.828;23.478;2022-07-29T06:33:26;14.73;;;13.27;;
9934;SDS011;5006;41.828;23.478;2022-07-29T06:34:31;14.57;;;13.17;;
9934;SDS011;5006;41.828;23.478;2022-07-29T06:35:36;14.83;;;13.33;;
9934;SDS011;5006;41.828;23.478;2022-07-29T06:36:42;14.23;;;12.93;;
9934;SDS011;5006;41.828;23.478;2022-07-29T06:37:48;14.60;;;13.10;;
9934;SDS011;5006;41.828;23.478;2022-07-29T06:38:55;16.63;;;13.13;;
9934;SDS011;5006;41.828;23.478;2022-07-29T06:40:01;12.93;;;11.73;;
9934;SDS011;5006;41.828;23.478;2022-07-29T06:41:24;13.40;;;12.10;;
9934;SDS011;5006;41.828;23.478;2022-07-29T06:42:30;14.50;;;12.87;;
9934;SDS011;5006;41.828;23.478;2022-07-29T06:43:35;12.67;;;11.50;;
9934;SDS011;5006;41.828;23.478;2022-07-29T06:44:42;11.40;;;10.23;;
9934;SDS011;5006;41.828;23.478;2022-07-29T06:45:47;10.53;;;9.43;;
9934;SDS011;5006;41.828;23.478;2022-07-29T06:46:53;9.93;;;8.93;;